createdAt,value
2022-08-12T00:00:37.048Z,19.60
2022-08-12T00:03:24.409Z,19.56
2022-08-12T00:06:10.272Z,18.66
2022-08-12T00:08:57.587Z,18.49
2022-08-12T00:11:45.412Z,19.44
2022-08-12T00:14:31.214Z,18.64
2022-08-12T00:17:17.066Z,18.58
2022-08-12T00:20:02.252Z,18.16
2022-08-12T00:22:58.830Z,18.05
2022-08-12T00:26:20.582Z,18.97
2022-08-12T00:29:01.473Z,17.99
2022-08-12T00:31:46.674Z,19.08
2022-08-12T00:34:34.210Z,18.95
2022-08-12T00:37:19.274Z,17.49
2022-08-12T00:40:11.524Z,18.32
2022-08-12T00:42:41.676Z,17.62
2022-08-12T00:45:09.404Z,17.59
2022-08-12T00:47:37.410Z,18.44
2022-08-12T00:50:06.124Z,18.42
2022-08-12T00:52:35.225Z,18.34
2022-08-12T00:55:03.605Z,17.76
2022-08-12T00:57:36.892Z,17.12
2022-08-12T01:00:10.674Z,18.20
2022-08-12T01:02:45.409Z,18.17
2022-08-12T01:05:32.985Z,17.72
2022-08-12T01:08:18.811Z,18.14
2022-08-12T01:11:06.146Z,17.73
2022-08-12T01:13:35.153Z,16.15
2022-08-12T01:16:04.717Z,18.04
2022-08-12T01:18:35.549Z,17.84
2022-08-12T01:21:17.233Z,17.92
2022-08-12T01:24:31.036Z,17.90
2022-08-12T01:26:51.178Z,17.80
2022-08-12T01:29:26.803Z,17.61
2022-08-12T01:31:57.876Z,17.82
2022-08-12T01:34:36.369Z,17.71
2022-08-12T01:37:06.596Z,17.80
2022-08-12T01:39:39.379Z,17.79
2022-08-12T01:42:28.229Z,17.51
2022-08-12T01:44:56.376Z,17.54
2022-08-12T01:47:31.548Z,17.74
2022-08-12T01:50:22.959Z,17.73
2022-08-12T01:52:55.475Z,17.72
2022-08-12T01:55:33.335Z,17.44
2022-08-12T01:58:55.320Z,17.67
2022-08-12T02:01:27.018Z,17.53
2022-08-12T02:04:43.457Z,17.60
2022-08-12T02:07:38.519Z,17.52
2022-08-12T02:10:50.289Z,16.61
2022-08-12T02:13:48.857Z,16.85
2022-08-12T02:16:25.553Z,17.32
2022-08-12T02:19:22.258Z,17.26
2022-08-12T02:22:20.090Z,17.20
2022-08-12T02:24:49.033Z,17.01
2022-08-12T02:27:19.207Z,17.17
2022-08-12T02:29:45.709Z,15.95
2022-08-12T02:32:14.448Z,15.59
2022-08-12T02:34:43.842Z,16.34
2022-08-12T02:37:13.824Z,17.02
2022-08-12T02:39:45.638Z,15.90
2022-08-12T02:42:15.269Z,16.96
2022-08-12T02:44:45.376Z,16.19
2022-08-12T02:47:58.893Z,16.87
2022-08-12T02:50:03.529Z,16.80
2022-08-12T02:52:36.212Z,15.36
2022-08-12T02:55:09.783Z,16.67
2022-08-12T02:57:36.352Z,16.24
2022-08-12T03:00:06.155Z,16.36
2022-08-12T03:02:38.785Z,16.52
2022-08-12T03:05:05.531Z,16.50
2022-08-12T03:07:59.435Z,15.02
2022-08-12T03:10:37.253Z,14.95
2022-08-12T03:13:07.030Z,16.03
2022-08-12T03:15:35.534Z,15.19
2022-08-12T03:18:23.579Z,16.53
2022-08-12T03:20:53.852Z,16.53
2022-08-12T03:23:30.373Z,16.54
2022-08-12T03:25:59.297Z,16.51
2022-08-12T03:28:46.989Z,15.43
2022-08-12T03:31:13.482Z,16.47
2022-08-12T03:33:54.060Z,16.30
2022-08-12T03:36:28.828Z,16.45
2022-08-12T03:39:19.420Z,16.42
2022-08-12T03:41:59.064Z,16.38
2022-08-12T03:44:52.847Z,15.71
2022-08-12T03:47:44.788Z,15.26
2022-08-12T03:50:30.179Z,16.32
2022-08-12T03:53:15.032Z,14.66
2022-08-12T03:56:00.251Z,16.00
2022-08-12T03:58:45.615Z,16.22
2022-08-12T04:01:14.676Z,14.64
2022-08-12T04:03:53.452Z,15.10
2022-08-12T04:06:35.287Z,15.44
2022-08-12T04:09:15.620Z,16.08
2022-08-12T04:12:02.651Z,16.19
2022-08-12T04:14:29.202Z,16.02
2022-08-12T04:16:57.185Z,14.82
2022-08-12T04:19:26.259Z,15.83
2022-08-12T04:22:01.163Z,16.03
2022-08-12T04:24:31.874Z,16.01
2022-08-12T04:26:58.411Z,15.41
2022-08-12T04:30:16.534Z,14.49
2022-08-12T04:32:16.587Z,14.64
2022-08-12T04:34:44.414Z,16.09
2022-08-12T04:37:12.573Z,15.06
2022-08-12T04:39:45.921Z,16.39
2022-08-12T04:42:13.063Z,15.76
2022-08-12T04:44:43.027Z,16.60
2022-08-12T04:47:16.850Z,16.68
2022-08-12T04:49:46.076Z,17.59
2022-08-12T04:52:15.781Z,17.53
2022-08-12T04:54:43.992Z,16.31
2022-08-12T04:57:10.711Z,17.55
2022-08-12T04:59:48.132Z,18.22
2022-08-12T05:02:22.420Z,18.91
2022-08-12T05:04:52.344Z,19.58
2022-08-12T05:07:20.522Z,19.53
2022-08-12T05:10:00.925Z,19.84
2022-08-12T05:12:34.544Z,19.76
2022-08-12T05:15:01.663Z,20.17
2022-08-12T05:17:30.367Z,21.38
2022-08-12T05:20:00.601Z,21.89
2022-08-12T05:22:27.757Z,20.82
2022-08-12T05:24:54.649Z,22.15
2022-08-12T05:27:23.386Z,21.71
2022-08-12T05:30:07.387Z,22.33
2022-08-12T05:32:36.936Z,22.56
2022-08-12T05:35:06.780Z,22.89
2022-08-12T05:37:34.912Z,23.54
2022-08-12T05:40:10.976Z,23.89
2022-08-12T05:42:38.787Z,24.09
2022-08-12T05:45:06.947Z,23.15
2022-08-12T05:47:52.769Z,24.18
2022-08-12T05:50:20.735Z,23.74
2022-08-12T05:52:48.834Z,23.64
2022-08-12T05:55:15.613Z,24.91
2022-08-12T05:57:44.187Z,24.34
2022-08-12T06:00:11.102Z,25.23
2022-08-12T06:02:39.405Z,25.61
2022-08-12T06:05:07.457Z,24.67
2022-08-12T06:08:01.386Z,25.16
2022-08-12T06:10:31.494Z,23.13
2022-08-12T06:13:00.277Z,23.79
2022-08-12T06:15:29.490Z,23.25
2022-08-12T06:18:13.564Z,23.69
2022-08-12T06:20:43.234Z,22.23
2022-08-12T06:23:10.610Z,23.36
2022-08-12T06:25:37.436Z,23.20
2022-08-12T06:28:14.307Z,22.45
2022-08-12T06:30:42.436Z,23.42
2022-08-12T06:33:22.175Z,23.28
2022-08-12T06:35:57.731Z,21.31
2022-08-12T06:38:26.703Z,23.30
2022-08-12T06:41:14.582Z,22.13
2022-08-12T06:44:06.119Z,22.90
2022-08-12T06:46:30.627Z,22.49
2022-08-12T06:48:59.050Z,23.42
2022-08-12T06:51:28.415Z,23.57
2022-08-12T06:53:57.715Z,23.60
2022-08-12T06:56:39.879Z,23.71
2022-08-12T06:59:31.911Z,23.86
2022-08-12T07:05:15.909Z,21.48
2022-08-12T07:08:33.085Z,20.59
2022-08-12T07:11:09.348Z,22.84
2022-08-12T07:14:19.784Z,24.69
2022-08-12T07:16:52.207Z,23.58
2022-08-12T07:19:20.068Z,24.19
2022-08-12T07:22:02.300Z,25.08
2022-08-12T07:24:29.155Z,25.25
2022-08-12T07:26:55.647Z,24.58
2022-08-12T07:29:23.014Z,24.51
2022-08-12T07:31:49.572Z,25.33
2022-08-12T07:34:17.089Z,24.52
2022-08-12T07:36:45.622Z,25.36
2022-08-12T07:39:13.469Z,24.37
2022-08-12T07:41:41.870Z,25.20
2022-08-12T07:44:09.169Z,25.39
2022-08-12T07:46:41.965Z,25.61
2022-08-12T07:49:13.254Z,24.71
2022-08-12T07:51:40.955Z,25.74
2022-08-12T07:54:09.496Z,25.79
2022-08-12T07:56:41.514Z,25.95
2022-08-12T07:59:09.813Z,26.07
2022-08-12T08:01:43.617Z,25.91
2022-08-12T08:04:28.725Z,26.33
2022-08-12T08:06:55.318Z,25.61
2022-08-12T08:09:23.314Z,25.73
2022-08-12T08:12:19.197Z,25.73
2022-08-12T08:14:47.011Z,26.85
2022-08-12T08:17:17.327Z,26.87
2022-08-12T08:20:02.721Z,26.93
2022-08-12T08:22:41.837Z,26.05
2022-08-12T08:25:34.664Z,27.09
2022-08-12T08:28:02.260Z,27.41
2022-08-12T08:30:30.223Z,27.50
2022-08-12T08:32:57.264Z,27.67
2022-08-12T08:35:25.336Z,27.20
2022-08-12T08:38:11.201Z,27.40
2022-08-12T08:41:00.070Z,27.86
2022-08-12T08:43:27.075Z,27.67
2022-08-12T08:46:10.963Z,27.98
2022-08-12T08:48:41.011Z,28.16
2022-08-12T08:51:07.527Z,27.42
2022-08-12T08:53:34.724Z,27.65
2022-08-12T08:56:05.103Z,27.74
2022-08-12T08:58:32.175Z,27.79
2022-08-12T09:00:59.799Z,28.82
2022-08-12T09:05:09.662Z,28.92
2022-08-12T09:09:13.114Z,27.72
2022-08-12T09:12:11.912Z,28.60
2022-08-12T09:20:27.586Z,29.25
2022-08-12T09:22:57.384Z,28.81
2022-08-12T09:25:33.120Z,28.89
2022-08-12T09:28:04.800Z,28.97
2022-08-12T09:30:41.866Z,28.44
2022-08-12T09:33:15.134Z,29.25
2022-08-12T09:35:46.173Z,29.21
2022-08-12T09:38:29.929Z,29.64
2022-08-12T09:42:07.936Z,29.51
2022-08-12T09:44:05.149Z,28.50
2022-08-12T09:46:34.867Z,29.35
2022-08-12T09:49:13.452Z,29.19
2022-08-12T09:51:44.476Z,28.88
2022-08-12T09:54:31.641Z,28.93
2022-08-12T09:58:46.900Z,29.06
2022-08-12T10:00:12.728Z,29.78
2022-08-12T10:03:03.373Z,29.88
2022-08-12T10:06:19.906Z,29.85
2022-08-12T10:08:27.474Z,29.67
2022-08-12T10:11:18.369Z,28.75
2022-08-12T10:13:46.985Z,29.24
2022-08-12T10:16:23.164Z,30.17
2022-08-12T10:18:51.253Z,30.22
2022-08-12T10:21:21.904Z,30.30
2022-08-12T10:23:51.645Z,27.99
2022-08-12T10:26:42.608Z,29.59
2022-08-12T10:30:03.378Z,29.79
2022-08-12T10:32:44.401Z,29.63
2022-08-12T10:35:09.685Z,30.12
2022-08-12T10:38:36.523Z,29.83
2022-08-12T10:40:28.519Z,30.09
2022-08-12T10:43:16.745Z,29.37
2022-08-12T10:45:43.834Z,29.03
2022-08-12T10:48:21.167Z,29.61
2022-08-12T10:51:01.524Z,30.18
2022-08-12T10:53:44.387Z,30.49
2022-08-12T10:56:19.070Z,30.03
2022-08-12T10:58:47.113Z,30.41
2022-08-12T11:01:26.051Z,30.20
2022-08-12T11:04:23.738Z,29.15
2022-08-12T11:07:07.183Z,29.72
2022-08-12T11:10:00.597Z,29.32
2022-08-12T11:12:56.184Z,29.07
2022-08-12T11:15:33.483Z,30.56
2022-08-12T11:18:11.941Z,30.64
2022-08-12T11:20:44.941Z,30.62
2022-08-12T11:23:26.061Z,30.54
2022-08-12T11:26:01.417Z,30.92
2022-08-12T11:28:33.849Z,30.97
2022-08-12T11:31:02.583Z,31.07
2022-08-12T11:34:06.465Z,29.10
2022-08-12T11:36:16.347Z,31.34
2022-08-12T11:38:50.446Z,31.51
2022-08-12T11:41:30.975Z,30.51
2022-08-12T11:43:59.276Z,30.80
2022-08-12T11:46:25.763Z,29.86
2022-08-12T11:48:52.855Z,29.96
2022-08-12T11:51:20.807Z,30.67
2022-08-12T11:53:58.625Z,31.02
2022-08-12T11:56:38.235Z,29.84
2022-08-12T12:02:03.067Z,30.94
2022-08-12T12:04:39.554Z,31.39
2022-08-12T12:07:11.315Z,30.30
2022-08-12T12:09:53.000Z,30.64
2022-08-12T12:12:22.433Z,30.25
2022-08-12T12:14:55.089Z,30.02
2022-08-12T12:17:25.911Z,30.51
2022-08-12T12:19:53.987Z,30.90
2022-08-12T12:22:23.377Z,30.52
2022-08-12T12:24:53.949Z,31.48
2022-08-12T12:27:37.599Z,32.13
2022-08-12T12:30:17.722Z,32.04
2022-08-12T12:32:53.260Z,31.07
2022-08-12T12:36:16.724Z,31.93
2022-08-12T12:38:12.204Z,31.89
2022-08-12T12:40:44.368Z,32.01
2022-08-12T12:43:12.250Z,30.76
2022-08-12T12:45:44.685Z,31.90
2022-08-12T12:48:18.196Z,31.42
2022-08-12T12:50:45.414Z,31.93
2022-08-12T12:54:06.541Z,31.21
2022-08-12T12:56:33.968Z,32.03
2022-08-12T12:59:02.225Z,31.86
2022-08-12T13:01:32.021Z,31.93
2022-08-12T13:04:02.473Z,32.19
2022-08-12T13:06:30.881Z,33.41
2022-08-12T13:09:02.947Z,32.66
2022-08-12T13:11:53.431Z,32.44
2022-08-12T13:14:28.985Z,33.01
2022-08-12T13:17:01.142Z,32.20
2022-08-12T13:19:37.881Z,32.84
2022-08-12T13:22:19.956Z,32.12
2022-08-12T13:24:55.714Z,32.65
2022-08-12T13:27:35.005Z,31.86
2022-08-12T13:30:06.543Z,32.49
2022-08-12T13:32:35.803Z,32.24
2022-08-12T13:35:04.515Z,31.85
2022-08-12T13:37:56.842Z,32.15
2022-08-12T13:40:25.227Z,31.99
2022-08-12T13:42:57.575Z,30.85
2022-08-12T13:45:29.333Z,31.97
2022-08-12T13:48:00.284Z,32.34
2022-08-12T13:50:36.478Z,32.42
2022-08-12T13:53:23.115Z,32.48
2022-08-12T13:55:59.419Z,32.45
2022-08-12T13:58:29.095Z,32.94
2022-08-12T14:00:58.171Z,32.44
2022-08-12T14:03:27.994Z,32.29
2022-08-12T14:05:57.946Z,32.69
2022-08-12T14:08:28.369Z,32.51
2022-08-12T14:11:02.219Z,31.98
2022-08-12T14:14:04.663Z,31.99
2022-08-12T14:16:38.015Z,31.08
2022-08-12T14:19:05.301Z,32.04
2022-08-12T14:22:01.065Z,31.46
2022-08-12T14:24:35.391Z,32.43
2022-08-12T14:27:09.392Z,32.58
2022-08-12T14:30:04.610Z,32.12
2022-08-12T14:32:34.630Z,32.09
2022-08-12T14:35:03.019Z,32.34
2022-08-12T14:37:57.113Z,31.33
2022-08-12T14:40:18.468Z,31.18
2022-08-12T14:42:46.887Z,31.77
2022-08-12T14:45:13.951Z,32.40
2022-08-12T14:47:58.372Z,32.12
2022-08-12T14:50:57.318Z,31.51
2022-08-12T14:55:28.422Z,32.43
2022-08-12T14:59:20.386Z,32.63
2022-08-12T15:01:49.548Z,32.48
2022-08-12T15:04:17.259Z,32.11
2022-08-12T15:06:52.041Z,32.85
2022-08-12T15:09:18.899Z,32.14
2022-08-12T15:12:04.247Z,31.73
2022-08-12T15:14:31.577Z,32.12
2022-08-12T15:17:01.226Z,31.66
2022-08-12T15:20:11.275Z,32.09
2022-08-12T15:22:38.483Z,32.33
2022-08-12T15:25:07.169Z,32.69
2022-08-12T15:28:05.643Z,32.61
2022-08-12T15:30:24.642Z,32.20
2022-08-12T15:32:53.529Z,31.56
2022-08-12T15:35:21.054Z,31.18
2022-08-12T15:38:10.177Z,32.03
2022-08-12T15:40:46.822Z,31.86
2022-08-12T15:43:35.489Z,32.30
2022-08-12T15:46:06.923Z,32.14
2022-08-12T15:48:37.703Z,31.46
2022-08-12T15:51:04.569Z,31.20
2022-08-12T15:53:53.214Z,31.29
2022-08-12T15:56:29.491Z,31.39
2022-08-12T15:58:59.261Z,31.83
2022-08-12T16:01:35.355Z,31.64
2022-08-12T16:04:03.212Z,31.63
2022-08-12T16:09:56.193Z,31.70
2022-08-12T16:12:14.698Z,31.56
2022-08-12T16:14:44.413Z,30.90
2022-08-12T16:17:15.626Z,30.43
2022-08-12T16:20:03.383Z,31.15
2022-08-12T16:22:29.236Z,30.23
2022-08-12T16:24:56.632Z,31.46
2022-08-12T16:27:27.792Z,31.39
2022-08-12T16:29:57.654Z,30.27
2022-08-12T16:32:31.941Z,30.70
2022-08-12T16:34:59.936Z,31.04
2022-08-12T16:37:32.518Z,31.35
2022-08-12T16:40:04.969Z,31.28
2022-08-12T16:42:38.957Z,30.26
2022-08-12T16:45:13.737Z,31.17
2022-08-12T16:47:58.533Z,30.17
2022-08-12T16:50:30.871Z,31.11
2022-08-12T16:52:59.838Z,30.57
2022-08-12T16:55:41.718Z,30.72
2022-08-12T16:58:18.435Z,30.19
2022-08-12T17:01:03.027Z,29.98
2022-08-12T17:03:36.613Z,30.69
2022-08-12T17:06:06.409Z,30.32
2022-08-12T17:08:39.244Z,29.99
2022-08-12T17:11:18.017Z,30.31
2022-08-12T17:13:53.472Z,30.52
2022-08-12T17:16:21.122Z,29.09
2022-08-12T17:18:57.515Z,29.98
2022-08-12T17:21:40.720Z,29.52
2022-08-12T17:24:15.337Z,30.26
2022-08-12T17:26:49.347Z,28.80
2022-08-12T17:29:19.479Z,28.51
2022-08-12T17:32:02.778Z,29.20
2022-08-12T17:34:48.897Z,30.07
2022-08-12T17:37:16.473Z,29.07
2022-08-12T17:40:12.245Z,28.95
2022-08-12T17:42:36.808Z,28.49
2022-08-12T17:45:17.077Z,28.42
2022-08-12T17:48:00.952Z,29.83
2022-08-12T17:50:39.860Z,28.86
2022-08-12T17:53:10.111Z,29.64
2022-08-12T17:55:48.226Z,29.64
2022-08-12T17:58:37.634Z,29.23
2022-08-12T18:01:06.003Z,29.48
2022-08-12T18:04:04.263Z,29.32
2022-08-12T18:06:28.250Z,29.38
2022-08-12T18:08:58.743Z,29.32
2022-08-12T18:12:04.482Z,28.57
2022-08-12T18:14:37.212Z,29.24
2022-08-12T18:17:08.808Z,29.15
2022-08-12T18:20:04.907Z,27.72
2022-08-12T18:22:30.650Z,28.93
2022-08-12T18:26:12.269Z,28.84
2022-08-12T18:28:15.846Z,28.45
2022-08-12T18:30:52.888Z,28.76
2022-08-12T18:33:24.960Z,26.79
2022-08-12T18:35:55.625Z,27.51
2022-08-12T18:38:25.267Z,27.22
2022-08-12T18:41:21.844Z,27.59
2022-08-12T18:44:02.349Z,27.34
2022-08-12T18:46:38.050Z,27.56
2022-08-12T18:49:18.321Z,27.80
2022-08-12T18:51:55.147Z,26.98
2022-08-12T18:54:25.731Z,27.55
2022-08-12T18:56:54.704Z,26.44
2022-08-12T19:00:01.022Z,26.56
2022-08-12T19:02:21.987Z,26.92
2022-08-12T19:04:53.386Z,27.24
2022-08-12T19:07:23.231Z,26.42
2022-08-12T19:09:58.959Z,26.82
2022-08-12T19:12:57.525Z,27.01
2022-08-12T19:15:25.943Z,26.55
2022-08-12T19:17:56.856Z,25.87
2022-08-12T19:20:29.885Z,26.79
2022-08-12T19:23:00.054Z,26.76
2022-08-12T19:25:59.548Z,26.62
2022-08-12T19:28:29.585Z,25.96
2022-08-12T19:31:56.132Z,26.25
2022-08-12T19:37:26.632Z,26.23
2022-08-12T19:40:10.003Z,25.78
2022-08-12T19:42:53.626Z,24.96
2022-08-12T19:45:20.714Z,26.07
2022-08-12T19:47:48.713Z,24.84
2022-08-12T19:50:20.196Z,25.14
2022-08-12T19:52:47.722Z,25.82
2022-08-12T19:55:21.509Z,25.82
2022-08-12T19:58:02.194Z,25.52
2022-08-12T20:00:31.648Z,25.39
2022-08-12T20:03:00.344Z,25.60
2022-08-12T20:06:06.996Z,25.47
2022-08-12T20:08:33.101Z,25.39
2022-08-12T20:12:11.829Z,25.29
2022-08-12T20:14:01.134Z,24.47
2022-08-12T20:16:53.039Z,24.81
2022-08-12T20:19:16.061Z,24.69
2022-08-12T20:21:43.423Z,24.12
2022-08-12T20:24:12.150Z,25.08
2022-08-12T20:26:42.621Z,23.62
2022-08-12T20:29:17.992Z,24.96
2022-08-12T20:31:47.700Z,24.97
2022-08-12T20:34:18.446Z,24.89
2022-08-12T20:36:45.322Z,24.15
2022-08-12T20:39:37.375Z,24.61
2022-08-12T20:42:04.254Z,23.61
2022-08-12T20:44:39.726Z,24.21
2022-08-12T20:47:18.235Z,24.10
2022-08-12T20:49:56.022Z,23.35
2022-08-12T20:52:30.220Z,24.18
2022-08-12T20:54:57.686Z,23.20
2022-08-12T20:57:24.389Z,23.46
2022-08-12T21:00:00.575Z,23.47
2022-08-12T21:02:30.510Z,23.86
2022-08-12T21:05:25.829Z,23.20
2022-08-12T21:08:12.524Z,21.87
2022-08-12T21:10:42.005Z,22.26
2022-08-12T21:13:20.371Z,21.76
2022-08-12T21:15:54.995Z,22.45
2022-08-12T21:18:28.336Z,22.96
2022-08-12T21:20:57.169Z,22.28
2022-08-12T21:23:25.604Z,21.73
2022-08-12T21:26:01.652Z,22.53
2022-08-12T21:28:31.480Z,20.88
2022-08-12T21:32:35.174Z,22.66
2022-08-12T21:34:08.251Z,21.61
2022-08-12T21:36:37.490Z,22.44
2022-08-12T21:39:22.039Z,22.56
2022-08-12T21:41:53.340Z,22.27
2022-08-12T21:45:43.965Z,22.46
2022-08-12T21:47:20.902Z,22.47
2022-08-12T21:50:02.829Z,21.19
2022-08-12T21:52:41.105Z,21.60
2022-08-12T21:55:17.673Z,22.10
2022-08-12T21:57:53.227Z,21.96
2022-08-12T22:00:33.552Z,22.69
2022-08-12T22:04:02.879Z,22.66
2022-08-12T22:06:25.863Z,20.99
2022-08-12T22:09:04.020Z,21.07
2022-08-12T22:11:41.780Z,22.86
2022-08-12T22:14:10.283Z,22.91
2022-08-12T22:16:46.953Z,21.86
2022-08-12T22:19:19.150Z,22.54
2022-08-12T22:21:52.165Z,22.85
2022-08-12T22:24:27.019Z,22.84
2022-08-12T22:27:08.243Z,21.15
2022-08-12T22:30:19.817Z,22.53
2022-08-12T22:32:51.640Z,21.48
2022-08-12T22:35:56.639Z,22.78
2022-08-12T22:38:24.888Z,22.34
2022-08-12T22:41:02.148Z,22.38
2022-08-12T22:43:59.057Z,19.99
2022-08-12T22:46:37.256Z,22.67
2022-08-12T22:49:06.569Z,21.73
2022-08-12T22:51:57.742Z,21.85
2022-08-12T22:54:35.709Z,22.46
2022-08-12T22:57:04.444Z,21.75
2022-08-12T22:59:51.214Z,21.93
2022-08-12T23:02:17.773Z,20.99
2022-08-12T23:04:59.487Z,21.51
2022-08-12T23:07:27.483Z,21.62
2022-08-12T23:10:03.674Z,22.22
2022-08-12T23:12:49.437Z,20.67
2022-08-12T23:15:16.249Z,22.06
2022-08-12T23:17:43.459Z,20.50
2022-08-12T23:20:12.950Z,21.78
2022-08-12T23:23:08.833Z,21.35
2022-08-12T23:25:54.251Z,20.60
2022-08-12T23:28:31.282Z,20.80
2022-08-12T23:31:04.381Z,19.70
2022-08-12T23:34:02.349Z,20.87
2022-08-12T23:36:31.757Z,21.41
2022-08-12T23:40:13.261Z,21.37
2022-08-12T23:42:18.125Z,19.30
2022-08-12T23:44:42.949Z,21.50
2022-08-12T23:47:11.602Z,21.47
2022-08-12T23:49:58.159Z,21.26
2022-08-12T23:52:34.466Z,19.95
2022-08-12T23:55:24.015Z,19.92
2022-08-12T23:57:51.111Z,21.06
